Time;durP1;ratioP1;P1;durP2;ratioP2;P2;SDS_P1;SDS_P2;PMS_P1;PMS_P2;Temp;Humidity;BMP_temperature;BMP_pressure;BME280_temperature;BME280_humidity;BME280_pressure;Samples;Min_cycle;Max_cycle;Signal;HPM_P1;HPM_P2
2022/04/12 00:00:40;;;;;;;1.73;0.95;;;8.20;34.20;;;;;;5054918;28;20605;-33
2022/04/12 00:03:07;;;;;;;2.20;1.38;;;8.20;34.20;;;;;;5054875;28;20170;-34
2022/04/12 00:05:37;;;;;;;3.05;1.30;;;8.20;34.20;;;;;;5054711;28;20178;-33
2022/04/12 00:08:04;;;;;;;2.53;1.88;;;8.10;34.20;;;;;;5054685;28;20684;-33
2022/04/12 00:10:31;;;;;;;2.40;1.45;;;8.10;34.50;;;;;;5054647;28;20544;-34
2022/04/12 00:12:59;;;;;;;2.67;1.98;;;8.00;34.20;;;;;;5054728;28;20362;-33
2022/04/12 00:15:25;;;;;;;3.05;1.83;;;8.00;34.50;;;;;;5054742;28;20201;-33
2022/04/12 00:20:35;;;;;;;1.80;1.02;;;7.90;34.70;;;;;;5054099;28;20196;-33
2022/04/12 00:23:01;;;;;;;2.05;1.08;;;7.90;34.40;;;;;;5053223;28;20544;-33
2022/04/12 00:25:28;;;;;;;3.23;1.43;;;7.80;34.50;;;;;;5054426;28;20177;-33
2022/04/12 00:27:56;;;;;;;2.97;1.05;;;7.90;34.70;;;;;;5054378;28;20689;-33
2022/04/12 00:30:23;;;;;;;1.70;1.17;;;7.80;34.40;;;;;;5054282;28;20535;-33
2022/04/12 00:32:52;;;;;;;5.57;1.70;;;7.70;35.20;;;;;;5054167;28;20182;-33
2022/04/12 00:35:19;;;;;;;2.55;1.55;;;7.60;35.20;;;;;;5054204;28;20672;-33
2022/04/12 00:37:46;;;;;;;2.65;1.38;;;7.60;35.00;;;;;;5052850;28;20194;-33
2022/04/12 00:40:13;;;;;;;1.85;1.63;;;7.60;34.80;;;;;;5054153;28;20214;-33
2022/04/12 00:42:39;;;;;;;1.70;1.13;;;7.60;35.10;;;;;;5054208;28;20248;-33
2022/04/12 00:45:06;;;;;;;2.63;1.17;;;7.60;35.00;;;;;;5054094;28;20192;-33
2022/04/12 00:47:31;;;;;;;2.53;1.20;;;7.60;35.10;;;;;;5053805;28;20200;-33
2022/04/12 00:49:57;;;;;;;2.03;1.30;;;7.50;35.30;;;;;;5054001;28;20197;-33
2022/04/12 00:52:25;;;;;;;2.17;1.10;;;7.50;35.20;;;;;;5053936;28;20175;-33
2022/04/12 00:54:53;;;;;;;2.75;1.40;;;7.40;34.90;;;;;;5053840;28;20417;-33
2022/04/12 00:57:19;;;;;;;2.30;1.10;;;7.40;35.00;;;;;;5053958;28;20231;-33
2022/04/12 00:59:45;;;;;;;1.80;1.05;;;7.40;35.10;;;;;;5053660;28;20197;-33
2022/04/12 01:02:11;;;;;;;2.45;1.63;;;7.40;35.20;;;;;;5053576;28;20679;-33
2022/04/12 01:04:37;;;;;;;3.00;1.67;;;7.40;35.60;;;;;;5053826;28;20174;-33
2022/04/12 01:07:03;;;;;;;5.03;1.80;;;7.30;35.50;;;;;;5053849;28;20491;-33
2022/04/12 01:09:29;;;;;;;3.75;1.92;;;7.30;35.30;;;;;;5053527;28;20491;-33
2022/04/12 01:11:57;;;;;;;3.43;1.57;;;7.30;35.40;;;;;;5053720;28;20220;-33
2022/04/12 01:14:24;;;;;;;2.45;1.10;;;7.20;35.40;;;;;;5053516;28;20413;-33
2022/04/12 01:16:50;;;;;;;2.65;2.28;;;7.20;34.90;;;;;;5053525;28;20176;-33
2022/04/12 01:19:16;;;;;;;2.15;1.33;;;7.20;35.20;;;;;;5053330;28;20653;-33
2022/04/12 01:22:19;;;;;;;2.50;1.10;;;7.10;35.80;;;;;;5053484;28;20208;-33
2022/04/12 01:24:45;;;;;;;3.38;1.70;;;7.10;35.40;;;;;;5052679;28;20208;-33
2022/04/12 01:27:10;;;;;;;1.90;1.40;;;7.10;35.90;;;;;;5053253;28;20197;-33
2022/04/12 01:29:36;;;;;;;2.70;0.90;;;7.10;35.60;;;;;;5053521;28;20219;-32
2022/04/12 01:32:07;;;;;;;1.30;0.70;;;7.10;35.70;;;;;;5052942;28;20674;-33
2022/04/12 01:34:36;;;;;;;1.40;0.88;;;7.10;35.80;;;;;;5053296;28;20182;-33
2022/04/12 01:37:05;;;;;;;4.57;1.38;;;7.00;35.80;;;;;;5053036;28;20513;-33
2022/04/12 01:39:31;;;;;;;2.22;1.20;;;7.00;35.50;;;;;;5053091;28;20205;-33
2022/04/12 01:41:57;;;;;;;1.70;1.13;;;7.00;35.80;;;;;;5053091;28;20194;-33
2022/04/12 01:44:23;;;;;;;3.03;1.63;;;7.00;35.60;;;;;;5053249;28;20182;-33
2022/04/12 01:46:49;;;;;;;3.50;1.37;;;7.00;35.50;;;;;;5053171;28;20523;-33
2022/04/12 01:49:16;;;;;;;2.40;1.30;;;6.90;36.00;;;;;;5052202;28;20534;-33
2022/04/12 01:51:42;;;;;;;2.10;1.20;;;6.90;36.00;;;;;;5052738;28;20173;-33
2022/04/12 01:54:08;;;;;;;2.65;1.60;;;6.80;35.40;;;;;;5052680;28;20185;-33
2022/04/12 01:56:33;;;;;;;3.30;1.63;;;6.80;36.00;;;;;;5052726;28;20174;-33
2022/04/12 01:59:01;;;;;;;2.13;1.17;;;6.80;36.50;;;;;;5052749;28;20198;-33
2022/04/12 02:01:27;;;;;;;2.17;0.93;;;6.80;35.90;;;;;;5052512;28;20165;-33
2022/04/12 02:03:53;;;;;;;2.27;1.40;;;6.80;35.50;;;;;;5053228;28;20705;-33
2022/04/12 02:06:18;;;;;;;2.10;1.48;;;6.80;35.70;;;;;;5052813;28;20194;-33
2022/04/12 02:08:44;;;;;;;3.60;2.37;;;6.70;35.90;;;;;;5052442;28;20738;-33
2022/04/12 02:11:10;;;;;;;1.70;1.20;;;6.70;36.00;;;;;;5052401;28;20192;-33
2022/04/12 02:13:36;;;;;;;2.77;1.70;;;6.60;35.90;;;;;;5052626;28;20932;-33
2022/04/12 02:16:01;;;;;;;2.33;1.33;;;6.60;35.90;;;;;;5052388;28;20408;-33
2022/04/12 02:18:27;;;;;;;1.60;1.03;;;6.60;36.10;;;;;;5052256;28;20431;-33
2022/04/12 02:20:53;;;;;;;3.33;2.17;;;6.60;35.80;;;;;;5051865;28;20232;-33
2022/04/12 02:23:18;;;;;;;5.23;0.97;;;6.60;35.70;;;;;;5052253;28;20172;-33
2022/04/12 02:25:44;;;;;;;2.23;1.70;;;6.50;36.10;;;;;;5052200;28;20165;-33
2022/04/12 02:28:10;;;;;;;3.10;1.00;;;6.50;36.20;;;;;;5052384;28;20284;-33
2022/04/12 02:30:36;;;;;;;2.67;1.33;;;6.50;36.40;;;;;;5051882;28;20408;-33
2022/04/12 02:33:02;;;;;;;1.33;0.93;;;6.50;36.00;;;;;;5050581;28;20420;-33
2022/04/12 02:35:28;;;;;;;1.97;0.87;;;6.50;35.80;;;;;;5051952;28;20414;-33
2022/04/12 02:37:53;;;;;;;3.13;2.30;;;6.50;36.10;;;;;;5077169;22;20432;-35
2022/04/12 02:40:19;;;;;;;2.00;1.20;;;6.50;36.10;;;;;;5090198;28;20211;-35
2022/04/12 02:42:45;;;;;;;2.27;1.47;;;6.50;35.90;;;;;;5092074;28;20171;-35
2022/04/12 02:45:11;;;;;;;2.10;1.33;;;6.40;36.20;;;;;;5092214;28;20398;-35
2022/04/12 02:47:37;;;;;;;1.80;1.37;;;6.40;36.60;;;;;;5092196;28;20168;-35
2022/04/12 02:50:03;;;;;;;2.43;1.80;;;6.40;35.90;;;;;;5072657;28;20433;-35
2022/04/12 02:52:28;;;;;;;2.15;0.80;;;6.40;36.30;;;;;;5071590;28;20522;-35
2022/04/12 02:54:54;;;;;;;2.23;1.03;;;6.30;36.70;;;;;;5071809;28;20184;-35
2022/04/12 02:57:20;;;;;;;1.93;1.10;;;6.30;36.50;;;;;;5072018;28;20183;-35
2022/04/12 02:59:46;;;;;;;2.00;1.43;;;6.30;36.50;;;;;;5071695;28;20565;-35
2022/04/12 03:02:11;;;;;;;1.33;0.80;;;6.30;36.80;;;;;;5074329;28;20214;-35
2022/04/12 03:04:37;;;;;;;2.23;1.37;;;6.30;36.50;;;;;;5076250;28;20399;-35
2022/04/12 03:07:03;;;;;;;1.90;1.27;;;6.30;36.30;;;;;;5076056;28;20195;-35
2022/04/12 03:09:29;;;;;;;3.47;1.35;;;6.30;36.30;;;;;;5076013;28;20200;-35
2022/04/12 03:11:55;;;;;;;1.93;1.20;;;6.30;36.10;;;;;;5075802;28;20180;-33
2022/04/12 03:14:20;;;;;;;1.90;1.13;;;6.30;36.00;;;;;;5075752;28;20463;-33
2022/04/12 03:16:46;;;;;;;2.33;1.07;;;6.30;35.90;;;;;;5075731;28;20179;-33
2022/04/12 03:19:11;;;;;;;2.27;1.00;;;6.20;35.80;;;;;;5075548;28;20189;-33
2022/04/12 03:21:37;;;;;;;1.20;0.73;;;6.20;35.80;;;;;;5075390;28;20169;-33
2022/04/12 03:24:03;;;;;;;2.00;0.97;;;6.20;36.20;;;;;;5075568;28;20175;-33
2022/04/12 03:26:29;;;;;;;2.40;1.33;;;6.20;35.90;;;;;;5075497;28;20165;-33
2022/04/12 03:28:55;;;;;;;2.00;1.20;;;6.20;36.00;;;;;;5075445;28;20217;-33
2022/04/12 03:31:21;;;;;;;2.03;1.00;;;6.10;36.30;;;;;;5075317;28;20169;-33
2022/04/12 03:33:48;;;;;;;2.25;1.50;;;6.10;36.70;;;;;;5075428;28;20444;-32
2022/04/12 03:36:13;;;;;;;1.40;0.82;;;6.00;37.00;;;;;;5075301;28;20235;-33
2022/04/12 03:38:48;;;;;;;4.00;1.80;;;5.90;37.30;;;;;;5075154;28;20227;-33
2022/04/12 03:41:22;;;;;;;3.45;1.52;;;5.90;37.40;;;;;;5074893;28;20446;-33
2022/04/12 03:43:48;;;;;;;1.90;1.15;;;5.90;37.10;;;;;;5075327;28;20183;-33
2022/04/12 03:46:14;;;;;;;1.30;0.80;;;5.90;36.90;;;;;;5075169;28;20161;-33
2022/04/12 03:48:40;;;;;;;2.00;0.90;;;5.80;36.70;;;;;;5075219;28;20553;-32
2022/04/12 03:51:06;;;;;;;5.10;1.95;;;5.90;36.80;;;;;;5074642;28;20180;-32
2022/04/12 03:53:32;;;;;;;1.83;1.43;;;5.90;36.40;;;;;;5075197;28;20234;-33
2022/04/12 03:55:57;;;;;;;2.33;1.17;;;5.90;36.80;;;;;;5075053;28;20542;-32
2022/04/12 03:58:23;;;;;;;1.50;1.00;;;5.90;37.70;;;;;;5074548;28;20584;-33
2022/04/12 04:00:50;;;;;;;2.95;1.00;;;5.90;36.90;;;;;;5074642;28;20265;-33
2022/04/12 04:03:17;;;;;;;1.20;0.60;;;5.90;36.90;;;;;;5074723;28;20176;-33
2022/04/12 04:05:44;;;;;;;1.40;1.00;;;5.90;37.10;;;;;;5074965;28;20194;-33
2022/04/12 04:08:10;;;;;;;1.60;0.75;;;5.90;37.00;;;;;;5074653;28;20209;-33
2022/04/12 04:10:36;;;;;;;2.30;1.30;;;5.80;36.80;;;;;;5074391;28;20630;-33
2022/04/12 04:13:04;;;;;;;2.90;1.87;;;5.80;36.80;;;;;;5074408;28;20414;-32
2022/04/12 04:15:31;;;;;;;2.90;0.98;;;5.80;36.60;;;;;;5074481;28;20230;-33
2022/04/12 04:17:57;;;;;;;2.85;1.45;;;5.80;37.40;;;;;;5074412;28;20200;-33
2022/04/12 04:20:23;;;;;;;2.87;1.30;;;5.80;37.10;;;;;;5074071;28;20200;-32
2022/04/12 04:22:48;;;;;;;1.10;0.50;;;5.80;36.90;;;;;;5074357;28;20165;-32
2022/04/12 04:25:15;;;;;;;2.33;1.23;;;5.80;37.20;;;;;;5074390;28;20160;-32
2022/04/12 04:27:41;;;;;;;3.00;1.30;;;5.90;37.10;;;;;;5074336;28;20536;-33
2022/04/12 04:30:09;;;;;;;1.95;1.33;;;5.90;36.90;;;;;;5074475;28;20204;-32
2022/04/12 04:32:35;;;;;;;3.20;1.58;;;5.90;36.90;;;;;;5074190;28;20181;-35
2022/04/12 04:35:02;;;;;;;2.38;1.13;;;6.00;37.20;;;;;;5074216;28;20204;-35
2022/04/12 04:37:28;;;;;;;2.72;1.38;;;6.00;36.90;;;;;;5074130;28;20653;-35
2022/04/12 04:39:54;;;;;;;3.20;1.03;;;6.00;37.10;;;;;;5073863;28;20212;-35
2022/04/12 04:42:23;;;;;;;1.87;1.63;;;6.10;37.20;;;;;;5073925;28;20507;-35
2022/04/12 04:44:49;;;;;;;4.13;1.50;;;6.10;37.40;;;;;;5074109;28;20534;-35
2022/04/12 04:47:15;;;;;;;2.28;1.60;;;6.10;37.80;;;;;;5073962;28;20183;-35
2022/04/12 04:49:41;;;;;;;2.05;1.15;;;6.10;37.40;;;;;;5073724;28;20189;-35
2022/04/12 04:52:07;;;;;;;3.55;1.88;;;6.20;37.40;;;;;;5073707;28;20771;-35
2022/04/12 04:54:34;;;;;;;2.92;1.20;;;6.20;37.10;;;;;;5073838;28;20165;-35
2022/04/12 04:56:59;;;;;;;2.03;1.30;;;6.30;37.10;;;;;;5074002;28;20214;-36
2022/04/12 04:59:25;;;;;;;3.33;1.60;;;6.40;36.90;;;;;;5073542;28;20708;-35
2022/04/12 05:01:51;;;;;;;4.17;2.57;;;6.50;37.50;;;;;;5073453;28;20176;-35
2022/04/12 05:04:17;;;;;;;4.90;2.30;;;6.60;37.00;;;;;;5073780;28;20407;-35
2022/04/12 05:06:42;;;;;;;2.73;2.40;;;6.60;36.90;;;;;;5073690;28;20630;-35
2022/04/12 05:09:08;;;;;;;3.73;1.80;;;6.70;36.90;;;;;;5073387;28;20284;-35
2022/04/12 05:11:34;;;;;;;2.23;1.63;;;6.80;36.80;;;;;;5073553;28;20195;-35
2022/04/12 05:13:59;;;;;;;3.30;1.77;;;6.80;36.80;;;;;;5073416;28;20460;-35
2022/04/12 05:16:25;;;;;;;7.27;1.57;;;6.90;37.00;;;;;;5073214;28;20643;-32
2022/04/12 05:18:53;;;;;;;2.43;2.00;;;7.00;36.80;;;;;;5073155;28;20193;-33
2022/04/12 05:21:19;;;;;;;5.30;2.30;;;7.00;36.70;;;;;;5072958;28;20709;-32
2022/04/12 05:23:45;;;;;;;4.23;2.47;;;7.10;36.60;;;;;;5072544;28;20204;-33
2022/04/12 05:26:10;;;;;;;3.60;2.30;;;7.20;36.50;;;;;;5073087;28;20168;-32
2022/04/12 05:28:36;;;;;;;4.00;3.00;;;7.30;36.40;;;;;;5072958;28;20202;-33
2022/04/12 05:31:02;;;;;;;4.07;1.80;;;7.40;36.50;;;;;;5072739;28;20172;-33
2022/04/12 05:33:29;;;;;;;7.65;3.03;;;7.50;36.30;;;;;;5072993;28;20418;-32
2022/04/12 05:35:55;;;;;;;3.55;1.85;;;7.60;36.20;;;;;;5072934;28;20176;-33
2022/04/12 05:38:20;;;;;;;8.03;2.73;;;7.70;36.00;;;;;;5072873;28;20215;-33
2022/04/12 05:40:46;;;;;;;2.70;1.83;;;7.80;35.90;;;;;;5072552;28;20646;-32
2022/04/12 05:43:12;;;;;;;4.03;2.53;;;7.90;35.80;;;;;;5072563;28;20161;-32
2022/04/12 05:45:37;;;;;;;4.27;2.70;;;8.00;35.70;;;;;;5072973;28;20179;-32
2022/04/12 05:48:03;;;;;;;3.30;2.10;;;8.20;35.70;;;;;;5072773;28;20173;-32
2022/04/12 05:50:29;;;;;;;3.07;2.37;;;8.20;35.50;;;;;;5072414;28;20255;-32
2022/04/12 05:52:55;;;;;;;3.37;2.57;;;8.40;35.50;;;;;;5072593;28;20768;-33
2022/04/12 05:55:23;;;;;;;4.50;2.22;;;8.50;35.40;;;;;;5072660;28;20180;-33
2022/04/12 05:57:55;;;;;;;6.72;4.05;;;8.60;35.40;;;;;;5072323;28;20181;-33
2022/04/12 06:00:22;;;;;;;3.65;2.50;;;8.70;35.30;;;;;;5072338;28;20204;-34
2022/04/12 06:02:50;;;;;;;2.80;2.10;;;8.90;35.30;;;;;;5072353;28;20590;-33
2022/04/12 06:05:18;;;;;;;2.80;1.77;;;9.00;35.10;;;;;;5072389;28;20163;-33
2022/04/12 06:07:44;;;;;;;4.18;2.00;;;9.20;35.00;;;;;;5072496;28;20199;-33
2022/04/12 06:10:11;;;;;;;6.28;4.32;;;9.30;35.00;;;;;;5071518;28;20187;-33
2022/04/12 06:12:37;;;;;;;3.78;2.65;;;9.40;34.80;;;;;;5071716;28;20183;-33
2022/04/12 06:15:05;;;;;;;3.65;2.13;;;9.50;34.70;;;;;;5072535;28;20248;-33
2022/04/12 06:17:35;;;;;;;8.77;3.50;;;9.70;34.60;;;;;;5072145;28;20171;-33
2022/04/12 06:20:10;;;;;;;3.90;2.30;;;9.80;34.50;;;;;;5072248;28;20584;-33
2022/04/12 06:22:36;;;;;;;2.55;2.00;;;10.00;34.40;;;;;;5071974;28;20179;-33
2022/04/12 06:25:03;;;;;;;6.20;2.95;;;10.10;34.30;;;;;;5072103;28;20173;-33
2022/04/12 06:27:31;;;;;;;4.60;2.70;;;10.30;34.10;;;;;;5072796;28;20620;-33
2022/04/12 06:29:57;;;;;;;3.97;2.75;;;10.40;34.20;;;;;;5072033;28;20622;-33
2022/04/12 06:32:25;;;;;;;4.40;2.65;;;10.60;33.10;;;;;;5071832;28;20181;-33
2022/04/12 06:34:51;;;;;;;3.50;2.15;;;10.70;33.60;;;;;;5072210;28;20172;-33
2022/04/12 06:37:17;;;;;;;6.83;2.73;;;10.90;33.10;;;;;;5071832;28;20228;-33
2022/04/12 06:39:42;;;;;;;5.83;2.57;;;11.00;32.20;;;;;;5053749;28;20518;-34
2022/04/12 06:42:08;;;;;;;4.13;2.20;;;11.20;32.80;;;;;;5071703;28;20169;-34
2022/04/12 06:44:34;;;;;;;5.27;2.20;;;11.30;32.80;;;;;;5072011;28;20172;-34
2022/04/12 06:47:00;;;;;;;6.15;2.05;;;11.50;32.00;;;;;;5071997;28;20175;-34
2022/04/12 06:49:26;;;;;;;4.00;2.70;;;11.70;31.90;;;;;;5071909;28;20187;-34
2022/04/12 06:51:51;;;;;;;3.27;1.73;;;11.90;31.30;;;;;;5071638;28;20263;-34
2022/04/12 06:54:17;;;;;;;7.60;2.60;;;12.10;30.60;;;;;;5071829;28;20271;-34
2022/04/12 06:56:43;;;;;;;3.17;2.10;;;12.30;30.00;;;;;;5071907;28;20604;-34
2022/04/12 06:59:08;;;;;;;3.70;1.50;;;12.50;30.20;;;;;;5071555;28;20193;-34
2022/04/12 07:01:34;;;;;;;3.73;1.67;;;12.70;28.90;;;;;;5071991;28;20176;-34
2022/04/12 07:03:59;;;;;;;2.83;1.37;;;12.70;28.60;;;;;;5072028;28;20187;-34
2022/04/12 07:06:25;;;;;;;3.70;2.53;;;12.80;28.40;;;;;;5071687;28;20784;-34
2022/04/12 07:08:51;;;;;;;2.53;1.33;;;12.90;27.80;;;;;;5071530;28;20622;-34
2022/04/12 07:11:16;;;;;;;3.03;2.23;;;13.10;28.30;;;;;;5071458;28;20172;-34
2022/04/12 07:13:42;;;;;;;2.43;1.60;;;13.10;27.60;;;;;;5071892;28;20194;-34
2022/04/12 07:16:08;;;;;;;4.77;2.00;;;13.20;27.10;;;;;;5071860;28;20645;-34
2022/04/12 07:18:33;;;;;;;4.23;2.00;;;13.30;27.20;;;;;;5071798;28;20677;-34
2022/04/12 07:20:59;;;;;;;4.87;2.30;;;13.50;27.30;;;;;;5071522;28;20295;-33
2022/04/12 07:23:25;;;;;;;4.20;2.20;;;13.70;26.70;;;;;;5071511;28;20172;-34
2022/04/12 07:25:50;;;;;;;3.07;1.50;;;13.80;27.10;;;;;;5071681;28;20559;-34
2022/04/12 07:28:16;;;;;;;2.60;1.90;;;13.90;26.20;;;;;;5071628;28;20200;-34
2022/04/12 07:30:42;;;;;;;3.00;1.93;;;14.10;26.70;;;;;;5071374;28;20793;-34
2022/04/12 07:33:07;;;;;;;5.03;2.57;;;14.20;25.70;;;;;;5071025;28;20185;-34
2022/04/12 07:35:33;;;;;;;3.50;2.10;;;14.40;26.60;;;;;;5071664;28;20272;-34
2022/04/12 07:37:58;;;;;;;5.53;2.37;;;14.60;25.70;;;;;;5071090;28;20263;-34
2022/04/12 07:40:24;;;;;;;2.47;1.50;;;14.80;25.40;;;;;;5071377;28;20208;-34
2022/04/12 07:42:50;;;;;;;2.70;1.80;;;14.90;25.50;;;;;;5071198;28;20247;-34
2022/04/12 07:45:15;;;;;;;2.80;1.60;;;15.10;25.20;;;;;;5071289;28;20200;-34
2022/04/12 07:47:41;;;;;;;2.90;1.60;;;15.20;24.50;;;;;;5073073;28;20200;-34
2022/04/12 07:50:07;;;;;;;2.83;2.17;;;15.30;24.50;;;;;;5075102;28;20693;-34
2022/04/12 07:52:33;;;;;;;4.25;2.17;;;15.50;24.10;;;;;;5074681;28;20230;-34
2022/04/12 07:54:59;;;;;;;3.50;1.80;;;15.60;24.00;;;;;;5074925;28;20184;-34
2022/04/12 07:57:27;;;;;;;3.30;2.30;;;15.70;24.10;;;;;;5075119;28;20229;-34
2022/04/12 07:59:53;;;;;;;4.63;2.92;;;15.90;23.80;;;;;;5074567;28;20204;-34
2022/04/12 08:02:19;;;;;;;5.23;1.60;;;16.00;24.50;;;;;;5073146;28;20310;-33
2022/04/12 08:04:44;;;;;;;4.03;2.47;;;16.30;22.90;;;;;;5074653;28;20180;-33
2022/04/12 08:07:10;;;;;;;2.43;1.60;;;16.10;23.00;;;;;;5075013;28;20254;-34
2022/04/12 08:09:36;;;;;;;2.57;1.73;;;16.30;24.50;;;;;;5073437;28;20674;-33
2022/04/12 08:12:02;;;;;;;2.80;1.40;;;16.30;22.10;;;;;;5074319;28;20247;-34
2022/04/12 08:14:28;;;;;;;5.28;2.90;;;16.40;22.90;;;;;;5074452;28;20641;-33
2022/04/12 08:16:54;;;;;;;3.67;2.00;;;16.50;23.40;;;;;;5074479;28;20184;-34
2022/04/12 08:19:19;;;;;;;2.73;1.97;;;16.70;22.60;;;;;;5074398;28;20191;-33
2022/04/12 08:21:45;;;;;;;3.97;2.10;;;16.90;23.20;;;;;;5074104;28;20218;-34
2022/04/12 08:24:10;;;;;;;4.40;1.73;;;17.10;22.00;;;;;;5072875;28;20177;-33
2022/04/12 08:26:36;;;;;;;2.90;2.33;;;17.20;21.90;;;;;;5074646;28;20175;-34
2022/04/12 08:29:03;;;;;;;5.07;2.90;;;17.40;22.00;;;;;;5074095;28;20188;-34
2022/04/12 08:31:28;;;;;;;3.17;2.03;;;17.50;21.70;;;;;;5074344;28;20441;-33
2022/04/12 08:33:54;;;;;;;3.33;2.03;;;17.70;21.70;;;;;;5074383;28;20223;-33
2022/04/12 08:36:22;;;;;;;4.13;1.50;;;17.90;22.20;;;;;;5074154;28;20516;-34
2022/04/12 08:38:49;;;;;;;2.88;2.00;;;18.10;21.90;;;;;;5074208;28;20297;-35
2022/04/12 08:41:15;;;;;;;5.28;1.60;;;18.30;21.90;;;;;;5073865;28;20296;-35
2022/04/12 08:43:42;;;;;;;4.18;2.17;;;18.50;19.80;;;;;;5074324;28;20178;-35
2022/04/12 08:46:08;;;;;;;3.13;2.05;;;18.50;19.60;;;;;;5073970;28;20635;-34
2022/04/12 08:48:35;;;;;;;2.45;1.70;;;18.40;20.00;;;;;;5074003;28;20193;-34
2022/04/12 08:51:01;;;;;;;3.40;1.70;;;18.30;19.70;;;;;;5073837;28;20291;-35
2022/04/12 08:53:28;;;;;;;5.20;2.30;;;18.40;19.90;;;;;;5073891;28;20580;-35
2022/04/12 08:55:55;;;;;;;2.60;1.85;;;18.40;19.90;;;;;;5073870;28;20173;-35
2022/04/12 08:58:21;;;;;;;2.97;2.00;;;18.40;19.30;;;;;;5073023;28;20189;-35
2022/04/12 09:00:50;;;;;;;3.60;2.45;;;18.50;19.80;;;;;;5073369;28;20301;-35
2022/04/12 09:03:16;;;;;;;3.00;1.75;;;18.50;19.60;;;;;;5073361;28;20255;-35
2022/04/12 09:05:42;;;;;;;2.40;1.67;;;18.60;19.60;;;;;;5073518;28;20212;-35
2022/04/12 09:08:28;;;;;;;3.97;1.97;;;18.90;20.70;;;;;;5073517;28;20195;-35
2022/04/12 09:11:07;;;;;;;3.88;2.53;;;19.20;19.50;;;;;;5073414;28;20432;-35
2022/04/12 09:13:33;;;;;;;4.25;2.35;;;19.30;18.20;;;;;;5073695;28;20184;-35
2022/04/12 09:15:59;;;;;;;2.60;1.80;;;19.40;19.30;;;;;;5073670;28;20180;-35
2022/04/12 09:18:43;;;;;;;3.58;2.45;;;19.60;19.10;;;;;;5073500;28;20199;-35
2022/04/12 09:21:30;;;;;;;3.85;2.15;;;19.70;18.40;;;;;;5073031;28;20569;-35
2022/04/12 09:23:58;;;;;;;2.25;1.20;;;19.90;18.20;;;;;;5073572;28;20156;-34
2022/04/12 09:26:30;;;;;;;5.78;1.77;;;20.00;18.50;;;;;;5073464;28;20173;-34
2022/04/12 09:28:58;;;;;;;3.42;2.05;;;20.20;20.10;;;;;;5073183;28;20185;-34
2022/04/12 09:31:24;;;;;;;4.53;1.85;;;20.40;18.80;;;;;;5073207;28;20176;-34
2022/04/12 09:33:53;;;;;;;3.58;1.42;;;20.50;17.50;;;;;;5073316;28;20211;-34
2022/04/12 09:36:19;;;;;;;4.03;1.65;;;20.40;16.60;;;;;;5073287;28;20176;-34
2022/04/12 09:38:47;;;;;;;3.63;1.90;;;20.20;16.20;;;;;;5072784;28;20211;-34
2022/04/12 09:41:23;;;;;;;2.75;1.30;;;20.20;16.70;;;;;;5072638;28;20233;-34
2022/04/12 09:43:52;;;;;;;2.22;1.20;;;20.20;16.20;;;;;;5073135;28;20239;-35
2022/04/12 09:46:18;;;;;;;2.20;1.48;;;20.40;16.30;;;;;;5073179;28;20176;-35
2022/04/12 09:48:48;;;;;;;2.80;1.60;;;20.50;16.60;;;;;;5072778;28;20608;-35
2022/04/12 09:51:15;;;;;;;3.40;2.00;;;20.60;15.90;;;;;;5072535;28;20407;-35
2022/04/12 09:53:45;;;;;;;5.20;2.00;;;20.60;16.10;;;;;;5072707;28;20669;-35
2022/04/12 09:56:34;;;;;;;2.50;1.55;;;20.60;15.20;;;;;;5072650;28;20180;-35
2022/04/12 09:59:05;;;;;;;4.35;2.28;;;20.30;16.10;;;;;;5071929;28;20713;-35
2022/04/12 10:01:33;;;;;;;3.70;1.70;;;20.30;17.30;;;;;;5072217;28;20212;-35
2022/04/12 10:03:59;;;;;;;2.90;1.40;;;20.50;16.90;;;;;;5072388;28;20177;-35
2022/04/12 10:06:28;;;;;;;2.83;1.80;;;20.70;17.40;;;;;;5072690;28;20169;-35
2022/04/12 10:08:55;;;;;;;2.95;1.52;;;20.90;16.80;;;;;;5072517;28;20258;-35
2022/04/12 10:11:21;;;;;;;6.93;2.22;;;21.10;16.90;;;;;;5072051;28;20251;-35
2022/04/12 10:13:48;;;;;;;2.42;1.50;;;21.20;15.90;;;;;;5072675;28;20184;-35
2022/04/12 10:16:19;;;;;;;4.32;1.73;;;21.30;16.90;;;;;;5072157;28;20523;-35
2022/04/12 10:18:45;;;;;;;2.95;1.88;;;21.30;16.10;;;;;;5072189;28;20681;-35
2022/04/12 10:21:15;;;;;;;15.38;2.28;;;21.30;16.30;;;;;;5072266;28;20211;-34
2022/04/12 10:23:43;;;;;;;3.08;1.80;;;21.50;16.00;;;;;;5072486;28;20183;-35
2022/04/12 10:26:11;;;;;;;3.00;1.80;;;21.50;15.20;;;;;;5072269;28;20281;-35
2022/04/12 10:28:37;;;;;;;5.70;2.67;;;21.50;15.20;;;;;;5071977;28;20752;-35
2022/04/12 10:31:12;;;;;;;3.95;1.55;;;21.40;15.60;;;;;;5071859;28;20187;-35
2022/04/12 10:33:38;;;;;;;2.40;1.50;;;21.40;15.50;;;;;;5072082;28;20198;-35
2022/04/12 10:36:06;;;;;;;3.20;1.97;;;21.40;16.20;;;;;;5072191;28;20176;-35
2022/04/12 10:38:42;;;;;;;4.30;1.67;;;21.40;15.70;;;;;;5071505;28;20221;-35
2022/04/12 10:41:28;;;;;;;5.07;2.38;;;21.50;16.00;;;;;;5070617;28;20207;-35
2022/04/12 10:43:56;;;;;;;4.15;2.20;;;21.60;15.90;;;;;;5072161;28;20522;-35
2022/04/12 10:46:22;;;;;;;2.67;1.60;;;21.70;15.00;;;;;;5071895;28;20715;-35
2022/04/12 10:48:55;;;;;;;3.67;2.07;;;21.60;14.60;;;;;;5072028;28;20201;-35
2022/04/12 10:51:39;;;;;;;2.58;1.48;;;21.70;15.80;;;;;;5071948;28;20176;-35
2022/04/12 10:54:06;;;;;;;4.70;2.15;;;21.80;15.30;;;;;;5071821;28;20183;-35
2022/04/12 10:56:32;;;;;;;4.70;2.13;;;21.90;13.70;;;;;;5071759;28;20707;-35
2022/04/12 10:58:58;;;;;;;3.40;1.80;;;21.80;14.40;;;;;;5071750;28;20200;-35
2022/04/12 11:01:29;;;;;;;3.00;1.60;;;21.70;13.90;;;;;;5071717;28;20201;-35
2022/04/12 11:03:56;;;;;;;4.18;2.00;;;21.70;14.20;;;;;;5071597;28;20439;-35
2022/04/12 11:06:24;;;;;;;3.50;1.20;;;21.80;14.10;;;;;;5071663;28;20182;-35
2022/04/12 11:08:52;;;;;;;2.65;1.90;;;21.90;14.20;;;;;;5071765;28;20216;-35
2022/04/12 11:11:21;;;;;;;5.20;1.70;;;21.60;13.10;;;;;;5071549;28;20184;-35
2022/04/12 11:13:49;;;;;;;8.75;2.25;;;21.40;14.40;;;;;;5071763;28;20176;-35
2022/04/12 11:16:18;;;;;;;2.95;2.45;;;21.50;14.80;;;;;;5071657;28;20255;-35
2022/04/12 11:18:58;;;;;;;2.85;1.58;;;21.60;14.50;;;;;;5071152;28;20215;-35
2022/04/12 11:21:26;;;;;;;3.30;2.10;;;21.70;14.90;;;;;;5071609;28;20196;-35
2022/04/12 11:23:55;;;;;;;4.45;2.33;;;21.90;14.20;;;;;;5075234;28;20195;-35
2022/04/12 11:26:38;;;;;;;4.45;2.42;;;21.90;14.20;;;;;;5075608;28;20250;-35
2022/04/12 11:29:13;;;;;;;4.63;2.47;;;22.00;13.80;;;;;;5075430;28;20300;-35
2022/04/12 11:31:44;;;;;;;3.80;2.22;;;22.10;14.10;;;;;;5075353;28;20229;-35
2022/04/12 11:34:10;;;;;;;3.20;1.95;;;22.20;14.70;;;;;;5075493;28;20173;-35
2022/04/12 11:36:38;;;;;;;4.00;2.10;;;22.30;14.80;;;;;;5075343;28;20175;-35
2022/04/12 11:39:04;;;;;;;3.30;1.88;;;22.40;14.80;;;;;;5075136;28;20299;-35
2022/04/12 11:41:30;;;;;;;3.90;2.17;;;22.50;14.50;;;;;;5075182;28;20284;-35
2022/04/12 11:44:00;;;;;;;3.20;1.93;;;22.60;13.80;;;;;;5075402;28;20918;-34
2022/04/12 11:46:27;;;;;;;6.93;2.17;;;22.50;13.70;;;;;;5075614;28;20179;-35
2022/04/12 11:49:10;;;;;;;2.60;1.77;;;22.40;14.40;;;;;;5074955;28;20662;-35
2022/04/12 11:51:40;;;;;;;3.65;2.00;;;22.50;13.80;;;;;;5074917;28;20608;-35
2022/04/12 11:54:27;;;;;;;3.08;2.17;;;22.50;14.30;;;;;;5075297;28;20196;-35
2022/04/12 11:56:59;;;;;;;3.95;2.22;;;22.70;15.00;;;;;;5074901;28;20684;-35
2022/04/12 11:59:25;;;;;;;3.47;2.15;;;22.80;13.70;;;;;;5075010;28;20274;-35
2022/04/12 12:01:53;;;;;;;5.77;3.23;;;22.90;13.90;;;;;;5074733;28;20253;-35
2022/04/12 12:04:19;;;;;;;6.23;3.30;;;22.60;13.50;;;;;;5074842;28;20494;-35
2022/04/12 12:07:02;;;;;;;4.43;2.90;;;22.30;14.80;;;;;;5074642;28;20915;-35
2022/04/12 12:09:29;;;;;;;3.22;2.35;;;22.30;12.90;;;;;;5074590;28;20543;-35
2022/04/12 12:12:00;;;;;;;4.15;2.92;;;22.30;14.20;;;;;;5074534;28;20226;-35
2022/04/12 12:14:27;;;;;;;3.78;2.28;;;22.40;14.50;;;;;;5074843;28;20176;-35
2022/04/12 12:17:08;;;;;;;5.07;2.65;;;22.40;14.00;;;;;;5074569;28;20222;-35
2022/04/12 12:19:38;;;;;;;4.20;2.20;;;22.50;14.30;;;;;;5074565;28;20619;-35
2022/04/12 12:22:08;;;;;;;3.03;2.55;;;22.80;16.10;;;;;;5073887;28;20449;-35
2022/04/12 12:24:37;;;;;;;4.63;2.10;;;23.20;13.70;;;;;;5074348;28;20256;-35
2022/04/12 12:27:05;;;;;;;3.50;2.57;;;23.20;13.70;;;;;;5074546;28;20759;-35
2022/04/12 12:29:36;;;;;;;4.20;2.77;;;23.40;14.90;;;;;;5074010;28;20434;-35
2022/04/12 12:32:02;;;;;;;4.40;2.80;;;23.70;12.80;;;;;;5074108;28;20908;-35
2022/04/12 12:34:30;;;;;;;4.97;3.13;;;23.70;13.60;;;;;;5074290;28;20497;-35
2022/04/12 12:36:56;;;;;;;3.63;2.60;;;23.80;13.90;;;;;;5074515;28;20478;-35
2022/04/12 12:39:25;;;;;;;3.60;2.10;;;23.50;13.50;;;;;;5073973;28;21043;-35
2022/04/12 12:41:56;;;;;;;4.87;2.20;;;23.30;12.90;;;;;;5074592;28;20244;-35
2022/04/12 12:44:23;;;;;;;2.90;2.07;;;23.40;13.60;;;;;;5074088;28;20403;-35
2022/04/12 12:46:59;;;;;;;3.30;2.50;;;23.80;12.90;;;;;;5074020;28;20414;-35
2022/04/12 12:49:35;;;;;;;5.17;2.00;;;23.50;12.20;;;;;;5074030;28;20479;-35
2022/04/12 12:52:03;;;;;;;3.73;2.37;;;23.50;13.20;;;;;;5074027;28;20770;-35
2022/04/12 12:54:29;;;;;;;3.03;2.40;;;23.60;12.10;;;;;;5073285;28;20419;-35
2022/04/12 12:56:54;;;;;;;3.43;2.43;;;23.30;12.70;;;;;;5074021;28;20422;-35